Homestead, Montana
Current Conditions -  °F | °C
As of 10:52 AM on Thursday 18 Dec 2014 (Local Time) from KISN Reporting Station
Overcast Overcast  
Wind Chill: 17°   Ceiling: 700
Heat Index: 24°   Visibility: 7mi
Dew Point: 20°   Wind: 6mph
Humidity: 84%   Direction: 170°S
Pressure: 29.99"   Gusts: NA
Location:  48.42°N, 104.54°W
Report Text: KISN 181752Z AUTO 17005KT 7SM OVC007 M04/M07 A2999 RMK AO2 SLP189 T10441067 11044 21061 58003
Loading
Personal Weather Stations






























Interactive Weather Map New forecast layout! Learn more

10-Day Weather Forecast

Advertisements
Track Severe Weather on mobile